sensor_id;sensor_type;location;lat;lon;timestamp;P1;durP1;ratioP1;P2;durP2;ratioP2
57317;SDS011;43157;50.982;18.132;2023-11-21T00:00:00;10.30;;;3.20;;
57317;SDS011;43157;50.982;18.132;2023-11-21T00:02:26;11.10;;;3.70;;
57317;SDS011;43157;50.982;18.132;2023-11-21T00:04:52;11.10;;;3.80;;
57317;SDS011;43157;50.982;18.132;2023-11-21T00:07:17;9.50;;;3.80;;
57317;SDS011;43157;50.982;18.132;2023-11-21T00:09:43;11.20;;;4.00;;
57317;SDS011;43157;50.982;18.132;2023-11-21T00:12:10;11.80;;;3.80;;
57317;SDS011;43157;50.982;18.132;2023-11-21T00:14:36;11.10;;;4.00;;
57317;SDS011;43157;50.982;18.132;2023-11-21T00:17:02;10.10;;;3.40;;
57317;SDS011;43157;50.982;18.132;2023-11-21T00:19:28;9.70;;;3.40;;
57317;SDS011;43157;50.982;18.132;2023-11-21T00:21:53;11.20;;;3.20;;
57317;SDS011;43157;50.982;18.132;2023-11-21T00:24:19;8.50;;;2.50;;
57317;SDS011;43157;50.982;18.132;2023-11-21T00:26:44;7.90;;;2.90;;
57317;SDS011;43157;50.982;18.132;2023-11-21T00:29:10;8.60;;;2.80;;
57317;SDS011;43157;50.982;18.132;2023-11-21T00:31:36;10.90;;;3.30;;
57317;SDS011;43157;50.982;18.132;2023-11-21T00:34:02;11.70;;;4.00;;
57317;SDS011;43157;50.982;18.132;2023-11-21T00:36:31;10.50;;;3.40;;
57317;SDS011;43157;50.982;18.132;2023-11-21T00:38:58;10.70;;;3.50;;
57317;SDS011;43157;50.982;18.132;2023-11-21T00:41:24;11.90;;;3.30;;
57317;SDS011;43157;50.982;18.132;2023-11-21T00:43:53;8.90;;;3.00;;
57317;SDS011;43157;50.982;18.132;2023-11-21T00:46:20;10.20;;;3.20;;
57317;SDS011;43157;50.982;18.132;2023-11-21T00:48:46;8.00;;;2.60;;
57317;SDS011;43157;50.982;18.132;2023-11-21T00:51:12;8.80;;;3.10;;
57317;SDS011;43157;50.982;18.132;2023-11-21T00:53:37;8.10;;;2.10;;
57317;SDS011;43157;50.982;18.132;2023-11-21T00:56:04;9.80;;;3.20;;
57317;SDS011;43157;50.982;18.132;2023-11-21T00:58:32;6.20;;;1.70;;
57317;SDS011;43157;50.982;18.132;2023-11-21T01:00:57;7.70;;;2.10;;
57317;SDS011;43157;50.982;18.132;2023-11-21T01:03:23;7.60;;;1.90;;
57317;SDS011;43157;50.982;18.132;2023-11-21T01:05:48;7.10;;;2.50;;
57317;SDS011;43157;50.982;18.132;2023-11-21T01:08:15;7.80;;;1.90;;
57317;SDS011;43157;50.982;18.132;2023-11-21T01:10:41;7.80;;;2.50;;
57317;SDS011;43157;50.982;18.132;2023-11-21T01:13:06;7.40;;;2.30;;
57317;SDS011;43157;50.982;18.132;2023-11-21T01:15:32;5.40;;;1.70;;
57317;SDS011;43157;50.982;18.132;2023-11-21T01:17:58;6.10;;;1.80;;
57317;SDS011;43157;50.982;18.132;2023-11-21T01:20:24;6.50;;;1.80;;
57317;SDS011;43157;50.982;18.132;2023-11-21T01:22:50;5.40;;;1.50;;
57317;SDS011;43157;50.982;18.132;2023-11-21T01:25:15;7.20;;;2.10;;
57317;SDS011;43157;50.982;18.132;2023-11-21T01:27:41;7.10;;;2.50;;
57317;SDS011;43157;50.982;18.132;2023-11-21T01:30:08;6.90;;;2.60;;
57317;SDS011;43157;50.982;18.132;2023-11-21T01:32:36;8.20;;;2.50;;
57317;SDS011;43157;50.982;18.132;2023-11-21T01:35:02;9.80;;;3.20;;
57317;SDS011;43157;50.982;18.132;2023-11-21T01:37:28;10.00;;;3.30;;
57317;SDS011;43157;50.982;18.132;2023-11-21T01:39:54;8.30;;;2.60;;
57317;SDS011;43157;50.982;18.132;2023-11-21T01:42:22;7.00;;;2.50;;
57317;SDS011;43157;50.982;18.132;2023-11-21T01:44:48;5.30;;;2.00;;
57317;SDS011;43157;50.982;18.132;2023-11-21T01:47:14;8.60;;;2.30;;
57317;SDS011;43157;50.982;18.132;2023-11-21T01:49:42;7.90;;;2.50;;
57317;SDS011;43157;50.982;18.132;2023-11-21T01:52:09;7.70;;;2.90;;
57317;SDS011;43157;50.982;18.132;2023-11-21T01:54:36;7.90;;;2.70;;
57317;SDS011;43157;50.982;18.132;2023-11-21T01:57:03;9.10;;;3.40;;
57317;SDS011;43157;50.982;18.132;2023-11-21T01:59:34;6.90;;;2.70;;
57317;SDS011;43157;50.982;18.132;2023-11-21T02:02:02;8.10;;;3.10;;
57317;SDS011;43157;50.982;18.132;2023-11-21T02:04:31;7.00;;;2.50;;
57317;SDS011;43157;50.982;18.132;2023-11-21T02:07:00;9.20;;;3.60;;
57317;SDS011;43157;50.982;18.132;2023-11-21T02:09:26;9.60;;;3.90;;
57317;SDS011;43157;50.982;18.132;2023-11-21T02:11:55;10.60;;;3.40;;
57317;SDS011;43157;50.982;18.132;2023-11-21T02:14:21;6.30;;;2.20;;
57317;SDS011;43157;50.982;18.132;2023-11-21T02:16:48;5.40;;;2.10;;
57317;SDS011;43157;50.982;18.132;2023-11-21T02:19:17;5.80;;;2.20;;
57317;SDS011;43157;50.982;18.132;2023-11-21T02:21:52;7.70;;;2.50;;
57317;SDS011;43157;50.982;18.132;2023-11-21T02:24:21;7.70;;;2.40;;
57317;SDS011;43157;50.982;18.132;2023-11-21T02:26:50;7.70;;;2.40;;
57317;SDS011;43157;50.982;18.132;2023-11-21T02:29:17;6.30;;;1.80;;
57317;SDS011;43157;50.982;18.132;2023-11-21T02:31:44;6.80;;;2.00;;
57317;SDS011;43157;50.982;18.132;2023-11-21T02:34:15;6.40;;;1.80;;
57317;SDS011;43157;50.982;18.132;2023-11-21T02:36:42;6.10;;;2.00;;
57317;SDS011;43157;50.982;18.132;2023-11-21T02:39:08;8.30;;;2.60;;
57317;SDS011;43157;50.982;18.132;2023-11-21T02:41:35;8.20;;;2.70;;
57317;SDS011;43157;50.982;18.132;2023-11-21T02:44:02;8.40;;;2.50;;
57317;SDS011;43157;50.982;18.132;2023-11-21T02:46:28;8.20;;;3.10;;
57317;SDS011;43157;50.982;18.132;2023-11-21T02:48:54;9.20;;;3.30;;
57317;SDS011;43157;50.982;18.132;2023-11-21T02:51:19;11.40;;;3.60;;
57317;SDS011;43157;50.982;18.132;2023-11-21T02:53:45;8.40;;;3.30;;
57317;SDS011;43157;50.982;18.132;2023-11-21T02:56:12;9.50;;;3.00;;
57317;SDS011;43157;50.982;18.132;2023-11-21T02:58:41;14.40;;;4.80;;
57317;SDS011;43157;50.982;18.132;2023-11-21T03:01:08;15.60;;;5.10;;
57317;SDS011;43157;50.982;18.132;2023-11-21T03:03:34;19.50;;;6.50;;
57317;SDS011;43157;50.982;18.132;2023-11-21T03:06:04;13.30;;;3.80;;
57317;SDS011;43157;50.982;18.132;2023-11-21T03:10:15;9.80;;;2.90;;
57317;SDS011;43157;50.982;18.132;2023-11-21T03:12:40;9.00;;;3.00;;
57317;SDS011;43157;50.982;18.132;2023-11-21T03:15:06;9.30;;;2.80;;
57317;SDS011;43157;50.982;18.132;2023-11-21T03:17:32;13.60;;;4.00;;
57317;SDS011;43157;50.982;18.132;2023-11-21T03:20:01;18.40;;;5.40;;
57317;SDS011;43157;50.982;18.132;2023-11-21T03:22:29;19.70;;;6.40;;
57317;SDS011;43157;50.982;18.132;2023-11-21T03:24:54;21.30;;;6.00;;
57317;SDS011;43157;50.982;18.132;2023-11-21T03:27:20;17.10;;;5.30;;
57317;SDS011;43157;50.982;18.132;2023-11-21T03:29:46;14.50;;;3.40;;
57317;SDS011;43157;50.982;18.132;2023-11-21T03:32:12;8.30;;;2.00;;
57317;SDS011;43157;50.982;18.132;2023-11-21T03:34:52;7.90;;;2.20;;
57317;SDS011;43157;50.982;18.132;2023-11-21T03:37:22;8.10;;;2.00;;
57317;SDS011;43157;50.982;18.132;2023-11-21T03:39:47;5.80;;;2.00;;
57317;SDS011;43157;50.982;18.132;2023-11-21T03:42:14;5.70;;;1.70;;
57317;SDS011;43157;50.982;18.132;2023-11-21T03:44:39;7.20;;;1.70;;
57317;SDS011;43157;50.982;18.132;2023-11-21T03:47:05;9.30;;;2.40;;
57317;SDS011;43157;50.982;18.132;2023-11-21T03:49:30;5.60;;;1.80;;
57317;SDS011;43157;50.982;18.132;2023-11-21T03:51:56;7.30;;;2.30;;
57317;SDS011;43157;50.982;18.132;2023-11-21T03:54:21;7.90;;;2.70;;
57317;SDS011;43157;50.982;18.132;2023-11-21T03:56:47;7.40;;;2.20;;
57317;SDS011;43157;50.982;18.132;2023-11-21T03:59:12;8.30;;;2.40;;
57317;SDS011;43157;50.982;18.132;2023-11-21T04:01:38;7.20;;;2.50;;
57317;SDS011;43157;50.982;18.132;2023-11-21T04:04:04;7.10;;;2.50;;
57317;SDS011;43157;50.982;18.132;2023-11-21T04:06:29;8.40;;;2.50;;
57317;SDS011;43157;50.982;18.132;2023-11-21T04:08:55;7.40;;;2.60;;
57317;SDS011;43157;50.982;18.132;2023-11-21T04:11:21;11.90;;;4.00;;
57317;SDS011;43157;50.982;18.132;2023-11-21T04:13:46;15.00;;;4.40;;
57317;SDS011;43157;50.982;18.132;2023-11-21T04:16:12;14.80;;;3.80;;
57317;SDS011;43157;50.982;18.132;2023-11-21T04:18:38;11.80;;;4.00;;
57317;SDS011;43157;50.982;18.132;2023-11-21T04:21:04;14.90;;;4.30;;
57317;SDS011;43157;50.982;18.132;2023-11-21T04:23:31;21.80;;;7.20;;
57317;SDS011;43157;50.982;18.132;2023-11-21T04:25:59;26.20;;;8.10;;
57317;SDS011;43157;50.982;18.132;2023-11-21T04:28:28;16.20;;;5.50;;
57317;SDS011;43157;50.982;18.132;2023-11-21T04:30:54;13.10;;;3.90;;
57317;SDS011;43157;50.982;18.132;2023-11-21T04:33:19;12.10;;;4.40;;
57317;SDS011;43157;50.982;18.132;2023-11-21T04:35:47;10.00;;;3.60;;
57317;SDS011;43157;50.982;18.132;2023-11-21T04:38:13;8.90;;;2.90;;
57317;SDS011;43157;50.982;18.132;2023-11-21T04:40:39;9.60;;;2.80;;
57317;SDS011;43157;50.982;18.132;2023-11-21T04:43:04;8.90;;;2.50;;
57317;SDS011;43157;50.982;18.132;2023-11-21T04:45:30;9.10;;;2.90;;
57317;SDS011;43157;50.982;18.132;2023-11-21T04:47:56;10.90;;;2.00;;
57317;SDS011;43157;50.982;18.132;2023-11-21T04:50:22;8.90;;;2.50;;
57317;SDS011;43157;50.982;18.132;2023-11-21T04:52:47;9.20;;;2.70;;
57317;SDS011;43157;50.982;18.132;2023-11-21T04:55:13;11.80;;;3.70;;
57317;SDS011;43157;50.982;18.132;2023-11-21T04:57:40;12.90;;;3.50;;
57317;SDS011;43157;50.982;18.132;2023-11-21T05:00:07;8.20;;;2.10;;
57317;SDS011;43157;50.982;18.132;2023-11-21T05:02:34;8.80;;;2.50;;
57317;SDS011;43157;50.982;18.132;2023-11-21T05:05:00;11.60;;;3.60;;
57317;SDS011;43157;50.982;18.132;2023-11-21T05:07:31;7.40;;;2.00;;
57317;SDS011;43157;50.982;18.132;2023-11-21T05:09:57;7.30;;;1.80;;
57317;SDS011;43157;50.982;18.132;2023-11-21T05:12:23;8.10;;;3.00;;
57317;SDS011;43157;50.982;18.132;2023-11-21T05:14:49;6.50;;;1.50;;
57317;SDS011;43157;50.982;18.132;2023-11-21T05:17:15;6.30;;;1.90;;
57317;SDS011;43157;50.982;18.132;2023-11-21T05:19:41;5.20;;;1.40;;
57317;SDS011;43157;50.982;18.132;2023-11-21T05:22:06;6.50;;;2.20;;
57317;SDS011;43157;50.982;18.132;2023-11-21T05:24:33;5.60;;;1.70;;
57317;SDS011;43157;50.982;18.132;2023-11-21T05:27:00;5.90;;;1.70;;
57317;SDS011;43157;50.982;18.132;2023-11-21T05:29:25;6.30;;;1.70;;
57317;SDS011;43157;50.982;18.132;2023-11-21T05:31:51;5.60;;;1.30;;
57317;SDS011;43157;50.982;18.132;2023-11-21T05:34:18;6.30;;;1.20;;
57317;SDS011;43157;50.982;18.132;2023-11-21T05:36:45;6.40;;;1.90;;
57317;SDS011;43157;50.982;18.132;2023-11-21T05:39:11;7.10;;;1.80;;
57317;SDS011;43157;50.982;18.132;2023-11-21T05:41:37;6.90;;;2.10;;
57317;SDS011;43157;50.982;18.132;2023-11-21T05:44:02;11.00;;;2.60;;
57317;SDS011;43157;50.982;18.132;2023-11-21T05:46:29;8.50;;;2.40;;
57317;SDS011;43157;50.982;18.132;2023-11-21T05:48:54;7.80;;;2.20;;
57317;SDS011;43157;50.982;18.132;2023-11-21T05:51:20;9.30;;;3.10;;
57317;SDS011;43157;50.982;18.132;2023-11-21T05:53:46;9.20;;;2.70;;
57317;SDS011;43157;50.982;18.132;2023-11-21T05:56:12;10.30;;;4.00;;
57317;SDS011;43157;50.982;18.132;2023-11-21T05:58:38;10.60;;;3.80;;
57317;SDS011;43157;50.982;18.132;2023-11-21T06:01:05;11.20;;;3.30;;
57317;SDS011;43157;50.982;18.132;2023-11-21T06:03:32;12.10;;;5.00;;
57317;SDS011;43157;50.982;18.132;2023-11-21T06:05:58;11.20;;;4.20;;
57317;SDS011;43157;50.982;18.132;2023-11-21T06:08:24;12.40;;;3.40;;
57317;SDS011;43157;50.982;18.132;2023-11-21T06:10:49;8.60;;;2.30;;
57317;SDS011;43157;50.982;18.132;2023-11-21T06:13:15;8.00;;;2.60;;
57317;SDS011;43157;50.982;18.132;2023-11-21T06:15:41;12.40;;;4.00;;
57317;SDS011;43157;50.982;18.132;2023-11-21T06:18:07;10.10;;;3.50;;
57317;SDS011;43157;50.982;18.132;2023-11-21T06:20:35;10.50;;;3.80;;
57317;SDS011;43157;50.982;18.132;2023-11-21T06:23:02;9.40;;;3.20;;
57317;SDS011;43157;50.982;18.132;2023-11-21T06:25:29;9.90;;;3.20;;
57317;SDS011;43157;50.982;18.132;2023-11-21T06:27:54;7.40;;;2.60;;
57317;SDS011;43157;50.982;18.132;2023-11-21T06:30:21;8.60;;;2.60;;
57317;SDS011;43157;50.982;18.132;2023-11-21T06:32:47;8.10;;;2.80;;
57317;SDS011;43157;50.982;18.132;2023-11-21T06:35:12;11.30;;;3.30;;
57317;SDS011;43157;50.982;18.132;2023-11-21T06:37:38;8.60;;;2.80;;
57317;SDS011;43157;50.982;18.132;2023-11-21T06:40:04;10.60;;;3.20;;
57317;SDS011;43157;50.982;18.132;2023-11-21T06:42:30;9.70;;;2.90;;
57317;SDS011;43157;50.982;18.132;2023-11-21T06:44:56;8.20;;;2.50;;
57317;SDS011;43157;50.982;18.132;2023-11-21T06:47:23;7.80;;;2.90;;
57317;SDS011;43157;50.982;18.132;2023-11-21T06:49:50;8.30;;;2.40;;
57317;SDS011;43157;50.982;18.132;2023-11-21T06:52:16;8.20;;;2.60;;
57317;SDS011;43157;50.982;18.132;2023-11-21T06:54:42;8.50;;;2.70;;
57317;SDS011;43157;50.982;18.132;2023-11-21T06:57:07;7.40;;;1.70;;
57317;SDS011;43157;50.982;18.132;2023-11-21T06:59:33;11.00;;;2.80;;
57317;SDS011;43157;50.982;18.132;2023-11-21T07:02:01;7.00;;;2.10;;
57317;SDS011;43157;50.982;18.132;2023-11-21T07:04:27;8.90;;;2.00;;
57317;SDS011;43157;50.982;18.132;2023-11-21T07:06:53;6.60;;;2.30;;
57317;SDS011;43157;50.982;18.132;2023-11-21T07:09:19;8.10;;;2.50;;
57317;SDS011;43157;50.982;18.132;2023-11-21T07:11:47;11.20;;;2.90;;
57317;SDS011;43157;50.982;18.132;2023-11-21T07:14:14;9.80;;;3.30;;
57317;SDS011;43157;50.982;18.132;2023-11-21T07:16:40;9.60;;;3.40;;
57317;SDS011;43157;50.982;18.132;2023-11-21T07:19:06;8.50;;;2.50;;
57317;SDS011;43157;50.982;18.132;2023-11-21T07:21:35;11.00;;;2.90;;
57317;SDS011;43157;50.982;18.132;2023-11-21T07:24:01;9.90;;;3.50;;
57317;SDS011;43157;50.982;18.132;2023-11-21T07:26:28;11.00;;;4.00;;
57317;SDS011;43157;50.982;18.132;2023-11-21T07:28:53;10.50;;;3.70;;
57317;SDS011;43157;50.982;18.132;2023-11-21T07:44:04;9.60;;;3.10;;
57317;SDS011;43157;50.982;18.132;2023-11-21T07:46:32;11.00;;;3.30;;
57317;SDS011;43157;50.982;18.132;2023-11-21T07:48:58;12.80;;;3.50;;
57317;SDS011;43157;50.982;18.132;2023-11-21T07:51:24;13.60;;;5.40;;
57317;SDS011;43157;50.982;18.132;2023-11-21T07:53:50;14.80;;;5.70;;
57317;SDS011;43157;50.982;18.132;2023-11-21T07:56:15;23.20;;;9.50;;
57317;SDS011;43157;50.982;18.132;2023-11-21T07:58:41;26.40;;;13.50;;
57317;SDS011;43157;50.982;18.132;2023-11-21T08:01:06;24.30;;;12.20;;
57317;SDS011;43157;50.982;18.132;2023-11-21T08:03:33;27.30;;;12.30;;
57317;SDS011;43157;50.982;18.132;2023-11-21T08:05:59;40.00;;;18.20;;
57317;SDS011;43157;50.982;18.132;2023-11-21T08:08:24;25.10;;;11.40;;
57317;SDS011;43157;50.982;18.132;2023-11-21T08:10:50;64.70;;;35.40;;
57317;SDS011;43157;50.982;18.132;2023-11-21T08:13:23;43.70;;;24.20;;
57317;SDS011;43157;50.982;18.132;2023-11-21T08:15:49;49.90;;;23.10;;
57317;SDS011;43157;50.982;18.132;2023-11-21T08:18:15;46.20;;;21.30;;
57317;SDS011;43157;50.982;18.132;2023-11-21T08:20:42;31.00;;;15.60;;
57317;SDS011;43157;50.982;18.132;2023-11-21T08:23:08;55.30;;;25.30;;
57317;SDS011;43157;50.982;18.132;2023-11-21T08:25:34;33.10;;;14.70;;
57317;SDS011;43157;50.982;18.132;2023-11-21T08:28:00;26.80;;;13.50;;
57317;SDS011;43157;50.982;18.132;2023-11-21T08:30:26;32.50;;;17.30;;
57317;SDS011;43157;50.982;18.132;2023-11-21T08:32:55;27.10;;;12.80;;
57317;SDS011;43157;50.982;18.132;2023-11-21T08:35:23;35.00;;;14.20;;
57317;SDS011;43157;50.982;18.132;2023-11-21T08:37:53;41.10;;;17.10;;
57317;SDS011;43157;50.982;18.132;2023-11-21T08:40:19;56.30;;;22.80;;
57317;SDS011;43157;50.982;18.132;2023-11-21T08:42:46;46.30;;;18.30;;
57317;SDS011;43157;50.982;18.132;2023-11-21T08:45:13;18.90;;;6.70;;
57317;SDS011;43157;50.982;18.132;2023-11-21T08:47:40;32.50;;;14.40;;
57317;SDS011;43157;50.982;18.132;2023-11-21T08:50:06;26.90;;;11.70;;
57317;SDS011;43157;50.982;18.132;2023-11-21T08:52:33;20.70;;;9.40;;
57317;SDS011;43157;50.982;18.132;2023-11-21T08:54:59;25.30;;;10.90;;
57317;SDS011;43157;50.982;18.132;2023-11-21T08:57:28;47.40;;;21.30;;
57317;SDS011;43157;50.982;18.132;2023-11-21T08:59:54;46.20;;;21.20;;
57317;SDS011;43157;50.982;18.132;2023-11-21T09:02:21;35.70;;;16.00;;
57317;SDS011;43157;50.982;18.132;2023-11-21T09:04:49;61.10;;;22.90;;
57317;SDS011;43157;50.982;18.132;2023-11-21T09:07:16;40.40;;;17.50;;
57317;SDS011;43157;50.982;18.132;2023-11-21T09:09:41;27.80;;;9.80;;
57317;SDS011;43157;50.982;18.132;2023-11-21T09:12:07;34.80;;;14.00;;
57317;SDS011;43157;50.982;18.132;2023-11-21T09:14:33;32.40;;;12.90;;
57317;SDS011;43157;50.982;18.132;2023-11-21T09:16:59;48.60;;;19.00;;
57317;SDS011;43157;50.982;18.132;2023-11-21T09:19:24;20.80;;;9.30;;
57317;SDS011;43157;50.982;18.132;2023-11-21T09:21:50;14.60;;;6.20;;
57317;SDS011;43157;50.982;18.132;2023-11-21T09:24:17;22.30;;;9.10;;
57317;SDS011;43157;50.982;18.132;2023-11-21T09:26:43;12.90;;;6.20;;
57317;SDS011;43157;50.982;18.132;2023-11-21T09:29:08;18.40;;;9.20;;
57317;SDS011;43157;50.982;18.132;2023-11-21T09:31:34;13.70;;;6.60;;
57317;SDS011;43157;50.982;18.132;2023-11-21T09:34:00;13.90;;;5.30;;
57317;SDS011;43157;50.982;18.132;2023-11-21T09:36:27;12.90;;;6.50;;
57317;SDS011;43157;50.982;18.132;2023-11-21T09:38:55;12.80;;;5.50;;
57317;SDS011;43157;50.982;18.132;2023-11-21T09:41:23;14.50;;;7.10;;
57317;SDS011;43157;50.982;18.132;2023-11-21T09:43:56;22.10;;;13.00;;
57317;SDS011;43157;50.982;18.132;2023-11-21T09:46:24;14.70;;;8.00;;
57317;SDS011;43157;50.982;18.132;2023-11-21T09:48:51;17.00;;;9.70;;
57317;SDS011;43157;50.982;18.132;2023-11-21T09:51:19;11.40;;;5.70;;
57317;SDS011;43157;50.982;18.132;2023-11-21T09:53:47;9.10;;;4.10;;
57317;SDS011;43157;50.982;18.132;2023-11-21T09:56:17;12.50;;;5.40;;
57317;SDS011;43157;50.982;18.132;2023-11-21T09:58:50;13.10;;;5.70;;
57317;SDS011;43157;50.982;18.132;2023-11-21T10:01:19;17.20;;;7.00;;
57317;SDS011;43157;50.982;18.132;2023-11-21T10:03:46;19.00;;;9.20;;
57317;SDS011;43157;50.982;18.132;2023-11-21T10:06:13;23.50;;;10.70;;
57317;SDS011;43157;50.982;18.132;2023-11-21T10:08:40;26.60;;;11.30;;
57317;SDS011;43157;50.982;18.132;2023-11-21T10:11:06;33.30;;;14.10;;
57317;SDS011;43157;50.982;18.132;2023-11-21T10:13:36;32.00;;;13.80;;
57317;SDS011;43157;50.982;18.132;2023-11-21T10:16:03;32.00;;;15.60;;
57317;SDS011;43157;50.982;18.132;2023-11-21T10:18:30;31.60;;;14.00;;
57317;SDS011;43157;50.982;18.132;2023-11-21T10:20:59;28.90;;;14.60;;
57317;SDS011;43157;50.982;18.132;2023-11-21T10:23:29;36.40;;;19.00;;
57317;SDS011;43157;50.982;18.132;2023-11-21T10:25:54;34.20;;;17.40;;
57317;SDS011;43157;50.982;18.132;2023-11-21T10:28:20;35.50;;;17.10;;
57317;SDS011;43157;50.982;18.132;2023-11-21T10:30:46;29.50;;;15.70;;
57317;SDS011;43157;50.982;18.132;2023-11-21T10:33:12;33.60;;;16.70;;
57317;SDS011;43157;50.982;18.132;2023-11-21T10:38:06;34.60;;;17.40;;
57317;SDS011;43157;50.982;18.132;2023-11-21T10:40:37;34.20;;;16.20;;
57317;SDS011;43157;50.982;18.132;2023-11-21T10:43:07;35.80;;;16.70;;
57317;SDS011;43157;50.982;18.132;2023-11-21T10:48:07;39.00;;;18.10;;
57317;SDS011;43157;50.982;18.132;2023-11-21T10:50:33;39.20;;;17.10;;
57317;SDS011;43157;50.982;18.132;2023-11-21T10:53:04;38.60;;;15.30;;
57317;SDS011;43157;50.982;18.132;2023-11-21T10:55:30;35.50;;;17.10;;
57317;SDS011;43157;50.982;18.132;2023-11-21T10:57:59;38.50;;;17.60;;
57317;SDS011;43157;50.982;18.132;2023-11-21T11:00:30;41.30;;;17.70;;
57317;SDS011;43157;50.982;18.132;2023-11-21T11:02:59;40.20;;;19.10;;
57317;SDS011;43157;50.982;18.132;2023-11-21T11:05:26;36.30;;;15.70;;
57317;SDS011;43157;50.982;18.132;2023-11-21T11:10:33;39.20;;;16.90;;
57317;SDS011;43157;50.982;18.132;2023-11-21T11:13:00;32.60;;;15.80;;
57317;SDS011;43157;50.982;18.132;2023-11-21T11:15:27;29.80;;;13.20;;
57317;SDS011;43157;50.982;18.132;2023-11-21T11:17:53;35.40;;;14.70;;
57317;SDS011;43157;50.982;18.132;2023-11-21T11:20:23;34.20;;;13.70;;
57317;SDS011;43157;50.982;18.132;2023-11-21T11:22:55;32.70;;;13.60;;
57317;SDS011;43157;50.982;18.132;2023-11-21T11:28:07;31.90;;;14.20;;
57317;SDS011;43157;50.982;18.132;2023-11-21T11:33:41;29.30;;;12.40;;
57317;SDS011;43157;50.982;18.132;2023-11-21T11:36:22;31.90;;;11.50;;
57317;SDS011;43157;50.982;18.132;2023-11-21T11:38:51;29.90;;;11.50;;
57317;SDS011;43157;50.982;18.132;2023-11-21T11:41:28;27.90;;;11.60;;
57317;SDS011;43157;50.982;18.132;2023-11-21T11:43:58;28.20;;;10.80;;
57317;SDS011;43157;50.982;18.132;2023-11-21T11:46:42;27.10;;;11.10;;
57317;SDS011;43157;50.982;18.132;2023-11-21T11:49:23;31.50;;;11.70;;
57317;SDS011;43157;50.982;18.132;2023-11-21T11:52:31;27.00;;;10.10;;
57317;SDS011;43157;50.982;18.132;2023-11-21T11:54:55;26.60;;;10.20;;
57317;SDS011;43157;50.982;18.132;2023-11-21T11:57:23;27.30;;;10.10;;
57317;SDS011;43157;50.982;18.132;2023-11-21T12:02:41;27.90;;;11.70;;
57317;SDS011;43157;50.982;18.132;2023-11-21T12:05:11;31.30;;;12.40;;
57317;SDS011;43157;50.982;18.132;2023-11-21T12:07:50;32.00;;;13.30;;
57317;SDS011;43157;50.982;18.132;2023-11-21T12:10:22;29.50;;;12.20;;
57317;SDS011;43157;50.982;18.132;2023-11-21T12:12:54;27.80;;;12.10;;
57317;SDS011;43157;50.982;18.132;2023-11-21T12:15:20;32.80;;;13.70;;
57317;SDS011;43157;50.982;18.132;2023-11-21T12:17:47;30.50;;;12.80;;
57317;SDS011;43157;50.982;18.132;2023-11-21T12:20:14;33.20;;;13.70;;
57317;SDS011;43157;50.982;18.132;2023-11-21T12:22:49;27.00;;;12.10;;
57317;SDS011;43157;50.982;18.132;2023-11-21T12:25:16;27.10;;;11.50;;
57317;SDS011;43157;50.982;18.132;2023-11-21T12:27:47;28.00;;;11.00;;
57317;SDS011;43157;50.982;18.132;2023-11-21T12:30:19;32.00;;;12.10;;
57317;SDS011;43157;50.982;18.132;2023-11-21T12:32:50;26.90;;;11.40;;
57317;SDS011;43157;50.982;18.132;2023-11-21T12:35:17;28.90;;;12.70;;
57317;SDS011;43157;50.982;18.132;2023-11-21T12:37:45;31.30;;;11.60;;
57317;SDS011;43157;50.982;18.132;2023-11-21T12:40:12;23.90;;;10.20;;
57317;SDS011;43157;50.982;18.132;2023-11-21T12:42:43;27.30;;;11.80;;
57317;SDS011;43157;50.982;18.132;2023-11-21T12:47:43;29.50;;;10.80;;
57317;SDS011;43157;50.982;18.132;2023-11-21T12:50:10;29.30;;;11.10;;
57317;SDS011;43157;50.982;18.132;2023-11-21T12:52:41;31.00;;;11.20;;
57317;SDS011;43157;50.982;18.132;2023-11-21T12:55:12;23.80;;;10.30;;
57317;SDS011;43157;50.982;18.132;2023-11-21T12:57:44;25.10;;;10.10;;
57317;SDS011;43157;50.982;18.132;2023-11-21T13:00:11;28.90;;;11.00;;
57317;SDS011;43157;50.982;18.132;2023-11-21T13:02:40;27.20;;;10.60;;
57317;SDS011;43157;50.982;18.132;2023-11-21T13:05:09;26.70;;;9.20;;
57317;SDS011;43157;50.982;18.132;2023-11-21T13:07:46;26.30;;;10.20;;
57317;SDS011;43157;50.982;18.132;2023-11-21T13:10:14;24.70;;;10.40;;
57317;SDS011;43157;50.982;18.132;2023-11-21T13:12:45;24.50;;;10.40;;
57317;SDS011;43157;50.982;18.132;2023-11-21T13:15:17;22.70;;;10.20;;
57317;SDS011;43157;50.982;18.132;2023-11-21T13:17:43;21.80;;;8.60;;
57317;SDS011;43157;50.982;18.132;2023-11-21T13:20:12;26.50;;;9.90;;
57317;SDS011;43157;50.982;18.132;2023-11-21T13:22:54;24.80;;;10.60;;
57317;SDS011;43157;50.982;18.132;2023-11-21T13:25:24;22.00;;;10.50;;
57317;SDS011;43157;50.982;18.132;2023-11-21T13:27:55;21.90;;;10.30;;
57317;SDS011;43157;50.982;18.132;2023-11-21T13:30:22;18.70;;;8.80;;
57317;SDS011;43157;50.982;18.132;2023-11-21T13:32:55;26.30;;;10.40;;
57317;SDS011;43157;50.982;18.132;2023-11-21T13:35:30;19.10;;;9.80;;
57317;SDS011;43157;50.982;18.132;2023-11-21T13:38:13;20.60;;;10.20;;
57317;SDS011;43157;50.982;18.132;2023-11-21T13:40:46;23.50;;;10.30;;
57317;SDS011;43157;50.982;18.132;2023-11-21T13:43:15;15.00;;;7.20;;
57317;SDS011;43157;50.982;18.132;2023-11-21T13:45:44;15.70;;;7.20;;
57317;SDS011;43157;50.982;18.132;2023-11-21T13:48:10;14.20;;;6.00;;
57317;SDS011;43157;50.982;18.132;2023-11-21T13:50:42;15.60;;;6.70;;
57317;SDS011;43157;50.982;18.132;2023-11-21T13:53:25;14.60;;;6.10;;
57317;SDS011;43157;50.982;18.132;2023-11-21T13:55:51;16.90;;;6.20;;
57317;SDS011;43157;50.982;18.132;2023-11-21T13:58:20;14.90;;;6.90;;
57317;SDS011;43157;50.982;18.132;2023-11-21T14:01:05;10.70;;;4.10;;
57317;SDS011;43157;50.982;18.132;2023-11-21T14:03:38;10.70;;;4.60;;
57317;SDS011;43157;50.982;18.132;2023-11-21T14:06:15;11.20;;;4.40;;
57317;SDS011;43157;50.982;18.132;2023-11-21T14:08:48;9.50;;;4.30;;
57317;SDS011;43157;50.982;18.132;2023-11-21T14:11:13;10.50;;;4.70;;
57317;SDS011;43157;50.982;18.132;2023-11-21T14:13:43;11.70;;;5.00;;
57317;SDS011;43157;50.982;18.132;2023-11-21T14:16:11;10.40;;;3.80;;
57317;SDS011;43157;50.982;18.132;2023-11-21T14:18:39;11.20;;;4.60;;
57317;SDS011;43157;50.982;18.132;2023-11-21T14:21:17;13.70;;;5.90;;
57317;SDS011;43157;50.982;18.132;2023-11-21T14:23:44;13.40;;;6.20;;
57317;SDS011;43157;50.982;18.132;2023-11-21T14:26:11;14.60;;;6.20;;
57317;SDS011;43157;50.982;18.132;2023-11-21T14:28:40;15.50;;;7.20;;
57317;SDS011;43157;50.982;18.132;2023-11-21T14:31:07;21.00;;;8.50;;
57317;SDS011;43157;50.982;18.132;2023-11-21T14:33:38;16.90;;;7.70;;
57317;SDS011;43157;50.982;18.132;2023-11-21T14:36:04;15.30;;;7.40;;
57317;SDS011;43157;50.982;18.132;2023-11-21T14:38:33;17.00;;;7.40;;
57317;SDS011;43157;50.982;18.132;2023-11-21T14:40:59;16.00;;;7.40;;
57317;SDS011;43157;50.982;18.132;2023-11-21T14:43:24;14.20;;;6.90;;
57317;SDS011;43157;50.982;18.132;2023-11-21T14:45:51;15.90;;;7.80;;
57317;SDS011;43157;50.982;18.132;2023-11-21T14:48:16;15.10;;;6.60;;
57317;SDS011;43157;50.982;18.132;2023-11-21T14:50:53;15.90;;;8.90;;
57317;SDS011;43157;50.982;18.132;2023-11-21T14:53:45;16.30;;;8.00;;
57317;SDS011;43157;50.982;18.132;2023-11-21T14:56:20;19.00;;;10.10;;
57317;SDS011;43157;50.982;18.132;2023-11-21T14:59:06;19.40;;;9.60;;